createdAt,value
2023-01-13T00:01:27.579Z,10.47
2023-01-13T00:03:55.477Z,10.45
2023-01-13T00:06:26.618Z,10.46
2023-01-13T00:08:56.054Z,10.47
2023-01-13T00:11:24.434Z,10.45
2023-01-13T00:13:52.251Z,10.45
2023-01-13T00:16:21.199Z,10.45
2023-01-13T00:18:51.088Z,10.44
2023-01-13T00:21:21.025Z,10.45
2023-01-13T00:23:53.882Z,10.44
2023-01-13T00:26:25.575Z,10.44
2023-01-13T00:28:57.741Z,10.45
2023-01-13T00:31:25.828Z,10.41
2023-01-13T00:33:56.727Z,10.43
2023-01-13T00:36:24.656Z,10.42
2023-01-13T00:38:52.475Z,10.42
2023-01-13T00:41:21.921Z,10.42
2023-01-13T00:43:50.798Z,10.42
2023-01-13T00:46:21.281Z,10.43
2023-01-13T00:48:49.685Z,10.42
2023-01-13T00:51:19.856Z,10.42
2023-01-13T00:53:50.681Z,10.42
2023-01-13T00:56:30.526Z,10.41
2023-01-13T00:59:08.038Z,10.41
2023-01-13T01:01:36.053Z,10.40
2023-01-13T01:04:03.916Z,10.38
2023-01-13T01:06:31.734Z,10.38
2023-01-13T01:08:59.552Z,10.38
2023-01-13T01:11:29.553Z,10.39
2023-01-13T01:13:59.525Z,10.37
2023-01-13T01:16:30.792Z,10.39
2023-01-13T01:18:58.712Z,10.36
2023-01-13T01:21:28.221Z,10.36
2023-01-13T01:23:56.740Z,10.35
2023-01-13T01:26:26.928Z,10.37
2023-01-13T01:28:55.531Z,10.35
2023-01-13T01:31:25.342Z,10.34
2023-01-13T01:33:55.499Z,10.34
2023-01-13T01:36:26.194Z,10.33
2023-01-13T01:38:54.073Z,10.32
2023-01-13T01:41:24.214Z,10.34
2023-01-13T01:43:59.687Z,10.32
2023-01-13T01:46:29.182Z,10.31
2023-01-13T01:49:02.154Z,10.31
2023-01-13T01:51:35.266Z,10.31
2023-01-13T01:54:05.727Z,10.30
2023-01-13T01:56:35.959Z,10.29
2023-01-13T01:59:03.812Z,10.27
2023-01-13T02:01:33.652Z,10.28
2023-01-13T02:04:10.540Z,10.28
2023-01-13T02:06:39.190Z,10.24
2023-01-13T02:09:08.103Z,10.23
2023-01-13T02:11:54.339Z,10.22
2023-01-13T02:14:24.530Z,10.20
2023-01-13T02:16:59.860Z,9.95
2023-01-13T02:19:56.018Z,10.14
2023-01-13T02:22:40.216Z,10.17
2023-01-13T02:25:27.833Z,10.16
2023-01-13T02:28:15.309Z,10.13
2023-01-13T02:31:06.697Z,10.11
2023-01-13T02:33:47.295Z,10.07
2023-01-13T02:36:25.106Z,10.05
2023-01-13T02:38:59.386Z,10.02
2023-01-13T02:41:50.973Z,10.00
2023-01-13T02:44:25.788Z,9.97
2023-01-13T02:46:58.765Z,9.97
2023-01-13T02:49:34.783Z,9.95
2023-01-13T02:52:09.616Z,9.91
2023-01-13T02:54:40.347Z,9.89
2023-01-13T02:57:12.795Z,9.88
2023-01-13T02:59:42.530Z,9.84
2023-01-13T03:02:16.428Z,9.84
2023-01-13T03:05:02.380Z,9.81
2023-01-13T03:07:47.937Z,9.79
2023-01-13T03:10:28.654Z,9.79
2023-01-13T03:13:03.340Z,9.77
2023-01-13T03:15:43.871Z,9.77
2023-01-13T03:18:25.931Z,9.74
2023-01-13T03:21:05.000Z,9.73
2023-01-13T03:23:38.464Z,9.70
2023-01-13T03:26:12.619Z,9.69
2023-01-13T03:28:45.674Z,9.67
2023-01-13T03:31:17.353Z,9.66
2023-01-13T03:33:52.238Z,9.64
2023-01-13T03:36:25.725Z,9.64
2023-01-13T03:38:55.795Z,9.60
2023-01-13T03:41:30.717Z,9.61
2023-01-13T03:44:23.364Z,9.58
2023-01-13T03:47:01.449Z,9.55
2023-01-13T03:49:37.561Z,9.55
2023-01-13T03:52:10.885Z,9.54
2023-01-13T03:54:45.398Z,9.53
2023-01-13T03:57:16.579Z,9.53
2023-01-13T03:59:49.834Z,9.52
2023-01-13T04:02:26.559Z,9.51
2023-01-13T04:05:00.562Z,9.50
2023-01-13T04:07:38.114Z,9.49
2023-01-13T04:10:09.562Z,9.46
2023-01-13T04:12:59.178Z,9.46
2023-01-13T04:15:29.612Z,9.43
2023-01-13T04:18:03.820Z,9.45
2023-01-13T04:20:32.993Z,9.42
2023-01-13T04:23:02.648Z,9.39
2023-01-13T04:25:30.547Z,9.39
2023-01-13T04:27:58.319Z,9.38
2023-01-13T04:30:26.168Z,9.38
2023-01-13T04:32:54.167Z,9.36
2023-01-13T04:35:22.044Z,9.35
2023-01-13T04:37:51.162Z,9.35
2023-01-13T04:40:19.184Z,9.33
2023-01-13T04:42:46.986Z,9.32
2023-01-13T04:45:15.659Z,9.31
2023-01-13T04:47:43.448Z,9.30
2023-01-13T04:50:12.164Z,9.30
2023-01-13T04:52:40.336Z,9.28
2023-01-13T04:55:11.671Z,9.28
2023-01-13T04:57:39.530Z,9.25
2023-01-13T05:00:09.789Z,9.26
2023-01-13T05:02:37.646Z,9.23
2023-01-13T05:05:06.084Z,9.24
2023-01-13T05:07:34.024Z,9.22
2023-01-13T05:10:01.851Z,9.21
2023-01-13T05:12:48.556Z,9.22
2023-01-13T05:15:34.637Z,9.20
2023-01-13T05:18:03.208Z,9.19
2023-01-13T05:20:31.088Z,9.19
2023-01-13T05:23:16.508Z,9.18
2023-01-13T05:25:44.793Z,9.16
2023-01-13T05:28:13.979Z,9.18
2023-01-13T05:30:43.894Z,9.17
2023-01-13T05:33:12.540Z,9.17
2023-01-13T05:35:41.834Z,9.17
2023-01-13T05:38:10.660Z,9.17
2023-01-13T05:40:59.046Z,9.17
2023-01-13T05:43:29.302Z,9.17
2023-01-13T05:46:01.463Z,9.17
2023-01-13T05:48:31.713Z,9.14
2023-01-13T05:51:00.119Z,9.15
2023-01-13T05:53:28.345Z,9.14
2023-01-13T05:55:56.167Z,9.14
2023-01-13T05:58:26.296Z,9.15
2023-01-13T06:01:01.064Z,9.17
2023-01-13T06:03:28.943Z,9.14
2023-01-13T06:05:59.309Z,9.13
2023-01-13T06:08:28.582Z,9.12
2023-01-13T06:10:56.419Z,9.13
2023-01-13T06:13:25.213Z,9.12
2023-01-13T06:15:56.306Z,9.12
2023-01-13T06:18:25.774Z,9.10
2023-01-13T06:20:53.553Z,9.09
2023-01-13T06:23:21.488Z,9.08
2023-01-13T06:25:56.945Z,9.10
2023-01-13T06:28:25.019Z,9.07
2023-01-13T06:30:57.260Z,9.09
2023-01-13T06:33:31.082Z,9.07
2023-01-13T06:36:05.232Z,9.07
2023-01-13T06:38:37.177Z,9.06
2023-01-13T06:41:07.222Z,9.04
2023-01-13T06:43:34.191Z,9.05
2023-01-13T06:46:02.394Z,9.04
2023-01-13T06:48:35.274Z,9.05
2023-01-13T06:51:03.598Z,9.02
2023-01-13T06:53:31.419Z,9.00
2023-01-13T06:55:59.306Z,9.00
2023-01-13T06:58:27.174Z,9.00
2023-01-13T07:00:55.192Z,9.00
2023-01-13T07:03:23.023Z,8.97
2023-01-13T07:05:56.380Z,8.98
2023-01-13T07:08:24.677Z,8.97
2023-01-13T07:10:52.924Z,8.95
2023-01-13T07:13:38.888Z,8.95
2023-01-13T07:16:08.952Z,8.93
2023-01-13T07:18:37.205Z,8.92
2023-01-13T07:21:07.997Z,8.92
2023-01-13T07:23:37.803Z,8.91
2023-01-13T07:26:06.233Z,8.91
2023-01-13T07:28:34.985Z,8.90
2023-01-13T07:31:02.860Z,8.88
2023-01-13T07:33:33.871Z,8.87
2023-01-13T07:36:03.349Z,8.87
2023-01-13T07:38:33.736Z,8.86
2023-01-13T07:41:24.046Z,8.84
2023-01-13T07:43:51.837Z,8.82
2023-01-13T07:46:20.260Z,8.82
2023-01-13T07:48:48.977Z,8.82
2023-01-13T07:51:16.955Z,8.81
2023-01-13T07:53:46.204Z,8.81
2023-01-13T07:56:14.077Z,8.79
2023-01-13T07:58:41.962Z,8.78
2023-01-13T08:01:10.880Z,8.78
2023-01-13T08:03:39.207Z,8.76
2023-01-13T08:06:07.735Z,8.75
2023-01-13T08:08:35.702Z,8.74
2023-01-13T08:11:07.379Z,8.75
2023-01-13T08:13:35.501Z,8.73
2023-01-13T08:16:05.984Z,8.74
2023-01-13T08:18:35.416Z,8.72
2023-01-13T08:21:05.527Z,8.73
2023-01-13T08:23:33.457Z,8.73
2023-01-13T08:26:02.627Z,8.74
2023-01-13T08:28:32.225Z,8.74
2023-01-13T08:31:01.016Z,8.75
2023-01-13T08:33:29.247Z,8.74
2023-01-13T08:35:57.152Z,8.74
2023-01-13T08:38:25.728Z,8.76
2023-01-13T08:40:53.682Z,8.76
2023-01-13T08:43:24.036Z,8.76
2023-01-13T08:46:04.059Z,8.80
2023-01-13T08:48:32.379Z,8.76
2023-01-13T08:51:04.278Z,8.81
2023-01-13T08:53:32.435Z,8.77
2023-01-13T08:56:00.367Z,8.80
2023-01-13T08:58:28.238Z,8.79
2023-01-13T09:00:56.137Z,8.80
2023-01-13T09:03:25.539Z,8.83
2023-01-13T09:05:53.299Z,8.81
2023-01-13T09:08:21.251Z,8.82
2023-01-13T09:10:49.087Z,8.82
2023-01-13T09:13:17.119Z,8.83
2023-01-13T09:15:47.227Z,8.84
2023-01-13T09:18:15.216Z,8.83
2023-01-13T09:20:44.703Z,8.84
2023-01-13T09:23:12.604Z,8.85
2023-01-13T09:25:40.929Z,8.86
2023-01-13T09:28:09.234Z,8.86
2023-01-13T09:30:38.161Z,8.89
2023-01-13T09:33:23.613Z,8.89
2023-01-13T09:35:52.786Z,8.89
2023-01-13T09:38:20.627Z,8.90
2023-01-13T09:40:50.123Z,8.93
2023-01-13T09:43:39.588Z,8.95
2023-01-13T09:46:36.292Z,8.96
2023-01-13T09:49:05.372Z,8.95
2023-01-13T09:51:40.943Z,9.00
2023-01-13T09:54:16.128Z,9.01
2023-01-13T09:56:44.201Z,8.99
2023-01-13T09:59:13.113Z,9.02
2023-01-13T10:01:48.519Z,9.04
2023-01-13T10:04:17.043Z,9.04
2023-01-13T10:06:51.153Z,9.07
2023-01-13T10:09:24.739Z,9.08
2023-01-13T10:12:12.870Z,9.09
2023-01-13T10:14:43.715Z,9.09
2023-01-13T10:17:19.870Z,9.13
2023-01-13T10:19:52.552Z,9.13
2023-01-13T10:22:37.250Z,9.14
2023-01-13T10:25:42.690Z,9.13
2023-01-13T10:28:13.071Z,9.13
2023-01-13T10:30:42.758Z,9.14
2023-01-13T10:33:13.204Z,9.17
2023-01-13T10:35:56.620Z,9.19
2023-01-13T10:38:28.307Z,9.19
2023-01-13T10:40:58.831Z,9.19
2023-01-13T10:43:28.191Z,9.21
2023-01-13T10:46:05.145Z,9.24
2023-01-13T10:48:35.878Z,9.23
2023-01-13T10:51:29.464Z,9.22
2023-01-13T10:54:01.436Z,9.24
2023-01-13T10:56:32.604Z,9.23
2023-01-13T10:59:18.971Z,9.27
2023-01-13T11:02:01.178Z,9.30
2023-01-13T11:04:33.995Z,9.29
2023-01-13T11:07:03.562Z,9.30
2023-01-13T11:09:33.617Z,9.33
2023-01-13T11:12:02.997Z,9.32
2023-01-13T11:14:39.507Z,9.37
2023-01-13T11:17:22.159Z,9.41
2023-01-13T11:19:55.113Z,9.41
2023-01-13T11:22:28.077Z,9.46
2023-01-13T11:24:59.342Z,9.22
2023-01-13T11:27:39.281Z,9.47
2023-01-13T11:30:18.489Z,9.52
2023-01-13T11:33:02.337Z,9.56
2023-01-13T11:35:32.792Z,9.55
2023-01-13T11:38:07.583Z,9.59
2023-01-13T11:40:41.626Z,9.61
2023-01-13T11:43:19.652Z,9.62
2023-01-13T11:45:51.831Z,9.63
2023-01-13T11:48:23.967Z,9.62
2023-01-13T11:51:00.092Z,9.62
2023-01-13T11:53:54.816Z,9.62
2023-01-13T11:56:44.212Z,9.64
2023-01-13T11:59:45.956Z,9.62
2023-01-13T12:02:34.077Z,9.62
2023-01-13T12:05:13.423Z,9.62
2023-01-13T12:07:49.819Z,9.62
2023-01-13T12:10:30.026Z,9.62
2023-01-13T12:13:08.818Z,9.63
2023-01-13T12:15:57.210Z,9.62
2023-01-13T12:18:38.336Z,9.64
2023-01-13T12:21:16.463Z,9.62
2023-01-13T12:23:51.504Z,9.62
2023-01-13T12:26:19.408Z,9.60
2023-01-13T12:28:52.472Z,9.62
2023-01-13T12:31:21.672Z,9.60
2023-01-13T12:34:05.714Z,9.62
2023-01-13T12:36:40.235Z,9.59
2023-01-13T12:39:19.916Z,9.58
2023-01-13T12:42:10.711Z,9.55
2023-01-13T12:45:20.564Z,9.47
2023-01-13T12:47:49.569Z,9.45
2023-01-13T12:50:41.803Z,9.42
2023-01-13T12:53:38.477Z,9.36
2023-01-13T12:56:40.881Z,9.28
2023-01-13T12:59:34.560Z,9.26
2023-01-13T13:02:34.622Z,9.20
2023-01-13T13:05:37.563Z,9.19
2023-01-13T13:08:14.600Z,9.13
2023-01-13T13:10:56.521Z,9.13
2023-01-13T13:13:42.699Z,9.09
2023-01-13T13:16:46.590Z,9.06
2023-01-13T13:19:45.030Z,9.01
2023-01-13T13:22:38.165Z,9.00
2023-01-13T13:25:26.340Z,8.94
2023-01-13T13:28:06.896Z,8.94
2023-01-13T13:30:37.579Z,8.92
2023-01-13T13:33:22.243Z,8.92
2023-01-13T13:36:05.908Z,8.91
2023-01-13T13:39:20.255Z,8.91
2023-01-13T13:42:08.894Z,8.86
2023-01-13T13:45:00.579Z,8.86
2023-01-13T13:47:36.264Z,8.86
2023-01-13T13:50:09.993Z,8.87
2023-01-13T13:52:42.788Z,8.87
2023-01-13T13:55:18.501Z,8.86
2023-01-13T13:57:49.164Z,8.87
2023-01-13T14:00:24.127Z,8.88
2023-01-13T14:02:55.248Z,8.88
2023-01-13T14:05:25.555Z,8.88
2023-01-13T14:08:01.377Z,8.91
2023-01-13T14:10:36.008Z,8.90
2023-01-13T14:13:14.975Z,8.91
2023-01-13T14:15:43.239Z,8.89
2023-01-13T14:18:14.961Z,8.92
2023-01-13T14:20:43.316Z,8.90
2023-01-13T14:23:18.588Z,8.92
2023-01-13T14:25:49.771Z,8.91
2023-01-13T14:28:25.385Z,8.93
2023-01-13T14:30:54.250Z,8.88
2023-01-13T14:33:25.337Z,8.90
2023-01-13T14:36:15.085Z,8.87
2023-01-13T14:38:47.212Z,8.89
2023-01-13T14:41:26.743Z,8.88
2023-01-13T14:43:58.499Z,8.87
2023-01-13T14:46:37.017Z,8.85
2023-01-13T14:49:05.295Z,8.86
2023-01-13T14:51:33.219Z,8.87
2023-01-13T14:54:02.524Z,8.88
2023-01-13T14:56:52.764Z,8.89
2023-01-13T14:59:45.095Z,8.85
2023-01-13T15:02:38.260Z,8.85
2023-01-13T15:05:32.147Z,8.82
2023-01-13T15:08:03.231Z,8.85
2023-01-13T15:10:34.622Z,8.87
2023-01-13T15:13:05.601Z,8.88
2023-01-13T15:15:35.869Z,8.89
2023-01-13T15:18:11.566Z,8.87
2023-01-13T15:20:41.200Z,8.87
2023-01-13T15:23:09.702Z,8.86
2023-01-13T15:25:41.071Z,8.88
2023-01-13T15:28:15.664Z,8.86
2023-01-13T15:30:43.554Z,8.85
2023-01-13T15:33:14.031Z,8.86
2023-01-13T15:35:44.931Z,8.86
2023-01-13T15:38:14.074Z,8.85
2023-01-13T15:40:43.592Z,8.85
2023-01-13T15:43:32.279Z,8.85
2023-01-13T15:46:18.423Z,8.83
2023-01-13T15:48:46.474Z,8.82
2023-01-13T15:51:21.184Z,8.81
2023-01-13T15:53:49.016Z,8.82
2023-01-13T15:56:24.363Z,8.86
2023-01-13T15:58:52.248Z,8.83
2023-01-13T16:01:20.187Z,8.83
2023-01-13T16:03:48.186Z,8.83
2023-01-13T16:06:19.451Z,8.85
2023-01-13T16:08:47.391Z,8.83
2023-01-13T16:11:15.323Z,8.84
2023-01-13T16:13:44.674Z,8.83
2023-01-13T16:16:19.562Z,8.85
2023-01-13T16:18:47.836Z,8.83
2023-01-13T16:21:16.026Z,8.83
2023-01-13T16:23:43.919Z,8.83
2023-01-13T16:26:21.776Z,8.85
2023-01-13T16:28:52.293Z,8.83
2023-01-13T16:31:25.141Z,8.83
2023-01-13T16:33:52.918Z,8.56
2023-01-13T16:36:22.205Z,8.77
2023-01-13T16:38:51.953Z,8.79
2023-01-13T16:41:20.332Z,8.78
2023-01-13T16:43:48.718Z,8.78
2023-01-13T16:46:26.898Z,8.78
2023-01-13T16:48:57.107Z,8.76
2023-01-13T16:51:25.717Z,8.75
2023-01-13T16:53:53.955Z,8.75
2023-01-13T16:56:26.798Z,8.77
2023-01-13T16:58:55.460Z,8.50
2023-01-13T17:01:29.547Z,8.71
2023-01-13T17:03:59.009Z,8.72
2023-01-13T17:06:30.847Z,8.74
2023-01-13T17:09:02.937Z,8.74
2023-01-13T17:11:30.825Z,8.71
2023-01-13T17:13:58.619Z,8.71
2023-01-13T17:16:28.325Z,8.74
2023-01-13T17:18:56.289Z,8.72
2023-01-13T17:21:24.277Z,8.71
2023-01-13T17:23:52.634Z,8.71
2023-01-13T17:26:33.240Z,8.74
2023-01-13T17:29:02.060Z,8.73
2023-01-13T17:31:31.530Z,8.73
2023-01-13T17:33:59.429Z,8.71
2023-01-13T17:36:27.389Z,8.70
2023-01-13T17:38:56.096Z,8.70
2023-01-13T17:41:24.269Z,8.69
2023-01-13T17:43:52.885Z,8.69
2023-01-13T17:46:23.032Z,8.69
2023-01-13T17:48:52.843Z,8.69
2023-01-13T17:51:22.501Z,8.68
2023-01-13T17:53:50.367Z,8.67
2023-01-13T17:56:18.856Z,8.67
2023-01-13T17:58:46.803Z,8.67
2023-01-13T18:01:16.749Z,8.69
2023-01-13T18:03:44.997Z,8.67
2023-01-13T18:06:17.871Z,8.70
2023-01-13T18:08:45.866Z,8.44
2023-01-13T18:11:13.967Z,8.63
2023-01-13T18:13:42.895Z,8.67
2023-01-13T18:16:13.992Z,8.70
2023-01-13T18:18:43.656Z,8.69
2023-01-13T18:21:37.229Z,8.72
2023-01-13T18:24:22.719Z,8.44
2023-01-13T18:27:08.408Z,8.64
2023-01-13T18:29:38.983Z,8.67
2023-01-13T18:32:09.425Z,8.69
2023-01-13T18:34:37.372Z,8.69
2023-01-13T18:37:08.391Z,8.71
2023-01-13T18:39:37.358Z,8.70
2023-01-13T18:42:23.660Z,8.72
2023-01-13T18:44:52.523Z,8.70
2023-01-13T18:47:20.363Z,8.71
2023-01-13T18:49:48.873Z,8.73
2023-01-13T18:52:18.108Z,8.75
2023-01-13T18:54:45.985Z,8.73
2023-01-13T18:57:14.320Z,8.73
2023-01-13T18:59:42.214Z,8.73
2023-01-13T19:02:15.374Z,8.76
2023-01-13T19:04:43.816Z,8.75
2023-01-13T19:07:13.374Z,8.75
2023-01-13T19:09:43.170Z,8.77
2023-01-13T19:12:12.923Z,8.76
2023-01-13T19:14:42.326Z,8.76
2023-01-13T19:17:12.719Z,8.78
2023-01-13T19:19:42.204Z,8.77
2023-01-13T19:22:11.085Z,8.77
2023-01-13T19:24:41.837Z,8.77
2023-01-13T19:27:11.912Z,8.79
2023-01-13T19:29:43.212Z,8.77
2023-01-13T19:32:20.674Z,8.75
2023-01-13T19:34:51.213Z,8.77
2023-01-13T19:37:20.333Z,8.77
2023-01-13T19:39:48.332Z,8.77
2023-01-13T19:42:35.066Z,8.77
2023-01-13T19:45:25.578Z,8.74
2023-01-13T19:47:53.409Z,8.74
2023-01-13T19:50:21.446Z,8.75
2023-01-13T19:52:49.317Z,8.74
2023-01-13T19:55:17.192Z,8.74
2023-01-13T19:57:46.402Z,8.76
2023-01-13T20:00:20.637Z,8.73
2023-01-13T20:02:49.838Z,8.74
2023-01-13T20:05:21.433Z,8.73
2023-01-13T20:07:50.694Z,8.73
2023-01-13T20:10:20.260Z,8.74
2023-01-13T20:12:49.869Z,8.73
2023-01-13T20:15:17.894Z,8.71
2023-01-13T20:17:45.863Z,8.71
2023-01-13T20:20:15.920Z,8.70
2023-01-13T20:22:43.873Z,8.69
2023-01-13T20:25:13.247Z,8.69
2023-01-13T20:27:41.439Z,8.67
2023-01-13T20:30:13.548Z,8.69
2023-01-13T20:32:41.723Z,8.65
2023-01-13T20:35:10.584Z,8.67
2023-01-13T20:37:40.479Z,8.65
2023-01-13T20:40:11.243Z,8.65
2023-01-13T20:42:44.628Z,8.63
2023-01-13T20:45:17.396Z,8.64
2023-01-13T20:47:45.853Z,8.37
2023-01-13T20:50:16.550Z,8.55
2023-01-13T20:52:44.554Z,8.59
2023-01-13T20:55:12.634Z,8.58
2023-01-13T20:57:40.762Z,8.57
2023-01-13T21:00:13.936Z,8.57
2023-01-13T21:02:43.958Z,8.57
2023-01-13T21:05:11.935Z,8.55
2023-01-13T21:07:39.789Z,8.54
2023-01-13T21:10:11.258Z,8.54
2023-01-13T21:12:57.033Z,8.53
2023-01-13T21:15:25.747Z,8.51
2023-01-13T21:18:12.416Z,8.52
2023-01-13T21:20:40.565Z,8.50
2023-01-13T21:23:10.638Z,8.51
2023-01-13T21:25:40.392Z,8.50
2023-01-13T21:28:13.408Z,8.49
2023-01-13T21:30:41.308Z,8.22
2023-01-13T21:33:13.757Z,8.44
2023-01-13T21:35:41.689Z,8.43
2023-01-13T21:38:11.625Z,8.47
2023-01-13T21:40:39.477Z,8.45
2023-01-13T21:43:25.011Z,8.45
2023-01-13T21:46:10.476Z,8.43
2023-01-13T21:48:39.902Z,8.43
2023-01-13T21:51:07.667Z,8.43
2023-01-13T21:53:35.561Z,8.43
2023-01-13T21:56:03.419Z,8.42
2023-01-13T21:58:31.246Z,8.44
2023-01-13T22:01:04.913Z,8.45
2023-01-13T22:03:54.606Z,8.44
2023-01-13T22:06:24.491Z,8.44
2023-01-13T22:08:53.904Z,8.43
2023-01-13T22:11:22.875Z,8.44
2023-01-13T22:14:10.298Z,8.44
2023-01-13T22:16:41.742Z,8.44
2023-01-13T22:19:11.415Z,8.45
2023-01-13T22:21:41.228Z,8.45
2023-01-13T22:24:09.630Z,8.43
2023-01-13T22:26:37.568Z,8.44
2023-01-13T22:29:05.445Z,8.41
2023-01-13T22:31:33.466Z,8.41
2023-01-13T22:34:01.533Z,8.41
2023-01-13T22:36:29.357Z,8.40
2023-01-13T22:39:00.523Z,8.41
2023-01-13T22:41:32.924Z,8.39
2023-01-13T22:44:04.640Z,8.36
2023-01-13T22:46:35.159Z,8.38
2023-01-13T22:49:06.117Z,8.40
2023-01-13T22:51:34.307Z,8.38
2023-01-13T22:54:03.773Z,8.40
2023-01-13T22:56:31.634Z,8.37
2023-01-13T22:59:06.582Z,8.38
2023-01-13T23:01:43.285Z,8.37
2023-01-13T23:04:12.975Z,8.36
2023-01-13T23:06:41.524Z,8.36
2023-01-13T23:09:14.080Z,8.37
2023-01-13T23:11:42.476Z,8.33
2023-01-13T23:14:12.878Z,8.35
2023-01-13T23:16:43.079Z,8.12
2023-01-13T23:19:12.278Z,8.33
2023-01-13T23:21:48.230Z,8.37
2023-01-13T23:24:17.981Z,8.36
2023-01-13T23:26:45.766Z,8.36
2023-01-13T23:29:14.572Z,8.36
2023-01-13T23:31:43.165Z,8.36
2023-01-13T23:34:11.030Z,8.35
2023-01-13T23:36:41.191Z,8.36
2023-01-13T23:39:09.937Z,8.36
2023-01-13T23:41:40.620Z,8.37
2023-01-13T23:44:13.576Z,8.36
2023-01-13T23:46:56.748Z,8.37
2023-01-13T23:49:24.688Z,8.36
2023-01-13T23:51:53.013Z,8.37
2023-01-13T23:54:21.219Z,8.35
2023-01-13T23:56:52.510Z,8.37
2023-01-13T23:59:20.537Z,8.34
